createdAt,value
2017-06-10T00:01:02.263Z,12.78
2017-06-10T00:02:11.160Z,12.83
2017-06-10T00:03:20.525Z,12.83
2017-06-10T00:04:29.415Z,12.85
2017-06-10T00:05:38.628Z,12.77
2017-06-10T00:06:47.859Z,12.77
2017-06-10T00:07:56.751Z,12.78
2017-06-10T00:09:05.694Z,12.86
2017-06-10T00:10:14.582Z,12.77
2017-06-10T00:11:23.475Z,12.78
2017-06-10T00:12:33.016Z,12.75
2017-06-10T00:13:41.905Z,12.77
2017-06-10T00:14:50.900Z,12.72
2017-06-10T00:15:59.787Z,12.79
2017-06-10T00:17:08.998Z,12.75
2017-06-10T00:18:18.207Z,12.67
2017-06-10T00:19:27.432Z,12.7
2017-06-10T00:20:37.517Z,12.71
2017-06-10T00:21:47.056Z,12.67
2017-06-10T00:22:55.946Z,12.65
2017-06-10T00:24:04.835Z,12.56
2017-06-10T00:25:13.723Z,12.54
2017-06-10T00:26:22.816Z,12.59
2017-06-10T00:27:31.708Z,12.65
2017-06-10T00:28:40.948Z,12.6
2017-06-10T00:29:50.198Z,12.52
2017-06-10T00:30:59.736Z,12.5
2017-06-10T00:32:08.774Z,12.46
2017-06-10T00:33:17.666Z,12.42
2017-06-10T00:34:26.562Z,12.39
2017-06-10T00:35:35.775Z,12.47
2017-06-10T00:36:44.990Z,12.42
2017-06-10T00:37:54.176Z,12.41
2017-06-10T00:39:03.417Z,12.46
2017-06-10T00:40:12.306Z,12.45
2017-06-10T00:41:21.193Z,12.42
2017-06-10T00:42:30.081Z,12.38
2017-06-10T00:43:39.296Z,12.35
2017-06-10T00:44:48.180Z,12.29
2017-06-10T00:45:57.070Z,12.27
2017-06-10T00:47:06.279Z,12.28
2017-06-10T00:48:15.163Z,12.28
2017-06-10T00:49:24.109Z,12.19
2017-06-10T00:50:32.996Z,12.23
2017-06-10T00:51:41.916Z,12.29
2017-06-10T00:52:51.126Z,12.29
2017-06-10T00:54:00.015Z,12.24
2017-06-10T00:55:09.329Z,12.21
2017-06-10T00:56:18.219Z,12.35
2017-06-10T00:57:27.108Z,12.34
2017-06-10T00:58:35.995Z,12.29
2017-06-10T00:59:44.882Z,12.38
2017-06-10T01:00:54.795Z,12.27
2017-06-10T01:02:03.679Z,12.27
2017-06-10T01:03:12.566Z,12.29
2017-06-10T01:04:21.776Z,12.23
2017-06-10T01:05:30.990Z,12.2
2017-06-10T01:06:40.809Z,12.2
2017-06-10T01:07:49.702Z,12.21
2017-06-10T01:08:58.594Z,12.29
2017-06-10T01:10:07.484Z,12.24
2017-06-10T01:11:17.026Z,12.28
2017-06-10T01:12:25.918Z,12.32
2017-06-10T01:13:34.807Z,12.21
2017-06-10T01:14:43.694Z,12.17
2017-06-10T01:15:52.908Z,12.17
2017-06-10T01:17:01.802Z,12.19
2017-06-10T01:18:10.843Z,12.28
2017-06-10T01:19:19.757Z,12.34
2017-06-10T01:20:28.973Z,12.21
2017-06-10T01:21:37.862Z,12.29
2017-06-10T01:22:46.756Z,12.37
2017-06-10T01:23:56.050Z,12.32
2017-06-10T01:25:05.268Z,12.28
2017-06-10T01:26:14.157Z,12.24
2017-06-10T01:27:23.046Z,12.31
2017-06-10T01:28:31.934Z,12.31
2017-06-10T01:29:40.978Z,12.28
2017-06-10T01:30:49.866Z,12.27
2017-06-10T01:31:59.078Z,12.27
2017-06-10T01:33:07.968Z,12.17
2017-06-10T01:34:16.856Z,12.17
2017-06-10T01:35:25.792Z,12.2
2017-06-10T01:36:35.005Z,12.29
2017-06-10T01:37:44.217Z,12.29
2017-06-10T01:38:53.111Z,12.24
2017-06-10T01:40:02.002Z,12.28
2017-06-10T01:41:10.945Z,12.28
2017-06-10T01:42:19.833Z,12.16
2017-06-10T01:43:28.721Z,12.28
2017-06-10T01:44:37.608Z,12.28
2017-06-10T01:45:46.497Z,12.19
2017-06-10T01:46:55.534Z,12.23
2017-06-10T01:48:04.750Z,12.31
2017-06-10T01:49:14.169Z,12.19
2017-06-10T01:50:23.385Z,12.19
2017-06-10T01:51:32.305Z,12.19
2017-06-10T01:52:41.345Z,12.14
2017-06-10T01:53:50.561Z,12.16
2017-06-10T01:54:59.779Z,12.27
2017-06-10T01:56:08.997Z,12.23
2017-06-10T01:57:17.887Z,12.2
2017-06-10T01:58:26.875Z,12.19
2017-06-10T01:59:35.762Z,12.12
2017-06-10T02:00:44.973Z,12.19
2017-06-10T02:01:54.189Z,12.19
2017-06-10T02:03:03.079Z,12.14
2017-06-10T02:04:12.274Z,12.19
2017-06-10T02:05:21.163Z,12.16
2017-06-10T02:06:30.051Z,12.16
2017-06-10T02:07:39.263Z,12.07
2017-06-10T02:08:48.474Z,12.17
2017-06-10T02:09:57.622Z,12.16
2017-06-10T02:11:06.518Z,12.17
2017-06-10T02:12:15.402Z,12.19
2017-06-10T02:13:24.614Z,12.1
2017-06-10T02:14:33.501Z,12.09
2017-06-10T02:15:43.208Z,12.1
2017-06-10T02:16:52.447Z,12.09
2017-06-10T02:18:01.336Z,12.17
2017-06-10T02:19:10.554Z,12.07
2017-06-10T02:20:19.443Z,12.1
2017-06-10T02:21:28.480Z,12.17
2017-06-10T02:22:37.362Z,12.09
2017-06-10T02:23:46.906Z,12.1
2017-06-10T02:24:56.450Z,12.13
2017-06-10T02:26:05.339Z,12.16
2017-06-10T02:27:14.233Z,12.12
2017-06-10T02:28:23.118Z,12.17
2017-06-10T02:29:32.328Z,12.21
2017-06-10T02:30:41.546Z,12.19
2017-06-10T02:31:50.437Z,12.16
2017-06-10T02:32:59.328Z,12.1
2017-06-10T02:34:08.222Z,12.05
2017-06-10T02:35:17.116Z,12.1
2017-06-10T02:36:26.652Z,12.14
2017-06-10T02:37:35.867Z,12.13
2017-06-10T02:38:44.754Z,12.14
2017-06-10T02:39:53.649Z,12.09
2017-06-10T02:41:02.540Z,12.09
2017-06-10T02:42:11.430Z,12.13
2017-06-10T02:43:20.317Z,12.09
2017-06-10T02:44:30.008Z,12.13
2017-06-10T02:45:38.901Z,12.1
2017-06-10T02:46:48.110Z,12.02
2017-06-10T02:47:56.999Z,12.02
2017-06-10T02:49:05.891Z,11.96
2017-06-10T02:50:15.908Z,11.99
2017-06-10T02:51:24.825Z,11.94
2017-06-10T02:52:34.038Z,11.96
2017-06-10T02:53:43.251Z,11.9
2017-06-10T02:54:52.140Z,11.95
2017-06-10T02:56:01.449Z,11.95
2017-06-10T02:57:10.337Z,11.95
2017-06-10T02:58:19.225Z,11.95
2017-06-10T02:59:28.110Z,11.96
2017-06-10T03:00:36.997Z,11.95
2017-06-10T03:01:46.320Z,11.83
2017-06-10T03:02:55.534Z,11.9
2017-06-10T03:04:04.420Z,11.95
2017-06-10T03:05:13.308Z,11.86
2017-06-10T03:06:22.517Z,11.9
2017-06-10T03:07:32.153Z,11.9
2017-06-10T03:08:41.368Z,11.82
2017-06-10T03:09:50.905Z,11.86
2017-06-10T03:10:59.811Z,11.83
2017-06-10T03:12:08.697Z,11.8
2017-06-10T03:13:17.666Z,11.79
2017-06-10T03:14:26.558Z,11.76
2017-06-10T03:15:35.771Z,11.73
2017-06-10T03:16:44.670Z,11.76
2017-06-10T03:17:54.208Z,11.78
2017-06-10T03:19:03.394Z,11.7
2017-06-10T03:20:12.285Z,11.75
2017-06-10T03:21:21.173Z,11.73
2017-06-10T03:22:30.061Z,11.8
2017-06-10T03:23:38.953Z,11.72
2017-06-10T03:24:48.213Z,11.79
2017-06-10T03:25:57.106Z,11.79
2017-06-10T03:27:06.320Z,11.69
2017-06-10T03:28:15.211Z,11.73
2017-06-10T03:29:24.101Z,11.72
2017-06-10T03:30:33.089Z,11.78
2017-06-10T03:31:41.976Z,11.82
2017-06-10T03:32:50.862Z,11.69
2017-06-10T03:33:59.751Z,11.72
2017-06-10T03:35:08.844Z,11.73
2017-06-10T03:36:17.786Z,11.78
2017-06-10T03:37:26.999Z,11.79
2017-06-10T03:38:35.900Z,11.79
2017-06-10T03:39:44.790Z,11.76
2017-06-10T03:40:54.006Z,11.85
2017-06-10T03:42:03.319Z,11.76
2017-06-10T03:43:12.208Z,11.75
2017-06-10T03:44:21.444Z,11.79
2017-06-10T03:45:30.659Z,11.82
2017-06-10T03:46:39.873Z,11.69
2017-06-10T03:47:49.010Z,11.76
2017-06-10T03:48:57.898Z,11.8
2017-06-10T03:50:06.785Z,11.86
2017-06-10T03:51:16.002Z,11.83
2017-06-10T03:52:24.919Z,11.8
2017-06-10T03:53:33.960Z,11.82
2017-06-10T03:54:42.885Z,11.79
2017-06-10T03:55:51.781Z,11.78
2017-06-10T03:57:00.668Z,11.79
2017-06-10T03:58:09.559Z,11.8
2017-06-10T03:59:18.546Z,11.82
2017-06-10T04:00:27.433Z,11.88
2017-06-10T04:01:36.643Z,11.83
2017-06-10T04:02:45.539Z,11.88
2017-06-10T04:03:54.435Z,11.86
2017-06-10T04:05:03.622Z,11.96
2017-06-10T04:06:12.833Z,11.85
2017-06-10T04:07:22.048Z,11.88
2017-06-10T04:08:31.588Z,11.94
2017-06-10T04:09:40.801Z,11.88
2017-06-10T04:10:50.166Z,11.96
2017-06-10T04:11:59.053Z,11.94
2017-06-10T04:13:08.264Z,11.95
2017-06-10T04:14:17.161Z,11.94
2017-06-10T04:15:26.698Z,11.95
2017-06-10T04:16:36.159Z,12.04
2017-06-10T04:17:45.047Z,12.05
2017-06-10T04:18:54.254Z,12.05
2017-06-10T04:20:03.144Z,12.02
2017-06-10T04:21:12.050Z,12.04
2017-06-10T04:22:21.192Z,12.01
2017-06-10T04:23:30.731Z,11.98
2017-06-10T04:24:40.273Z,12.14
2017-06-10T04:25:49.166Z,12.09
2017-06-10T04:26:58.060Z,12.13
2017-06-10T04:28:07.802Z,12.16
2017-06-10T04:29:16.691Z,12.14
2017-06-10T04:30:25.576Z,12.12
2017-06-10T04:31:34.794Z,12.16
2017-06-10T04:32:44.021Z,12.2
2017-06-10T04:33:53.060Z,12.13
2017-06-10T04:35:01.949Z,12.24
2017-06-10T04:36:10.845Z,12.17
2017-06-10T04:37:19.728Z,12.2
2017-06-10T04:38:28.940Z,12.21
2017-06-10T04:39:38.638Z,12.29
2017-06-10T04:40:47.582Z,12.2
2017-06-10T04:41:56.509Z,12.29
2017-06-10T04:43:05.748Z,12.27
2017-06-10T04:44:14.642Z,12.31
2017-06-10T04:45:23.634Z,12.24
2017-06-10T04:46:32.525Z,12.39
2017-06-10T04:47:41.441Z,12.45
2017-06-10T04:48:50.670Z,12.41
2017-06-10T04:49:59.577Z,12.41
2017-06-10T04:51:08.637Z,12.45
2017-06-10T04:52:17.536Z,12.41
2017-06-10T04:53:26.432Z,12.47
2017-06-10T04:54:35.368Z,12.45
2017-06-10T04:55:44.273Z,12.42
2017-06-10T04:56:53.711Z,12.49
2017-06-10T04:58:02.608Z,12.47
2017-06-10T04:59:11.837Z,12.53
2017-06-10T05:00:21.083Z,12.53
2017-06-10T05:01:29.991Z,12.6
2017-06-10T05:02:39.401Z,12.54
2017-06-10T05:03:48.289Z,12.67
2017-06-10T05:04:57.178Z,12.57
2017-06-10T05:06:06.395Z,12.68
2017-06-10T05:07:15.609Z,12.71
2017-06-10T05:08:24.598Z,12.65
2017-06-10T05:09:33.488Z,12.79
2017-06-10T05:10:42.377Z,12.77
2017-06-10T05:11:51.267Z,12.71
2017-06-10T05:13:00.485Z,12.78
2017-06-10T05:14:09.522Z,12.9
2017-06-10T05:15:18.410Z,12.89
2017-06-10T05:16:27.946Z,12.89
2017-06-10T05:17:37.486Z,12.89
2017-06-10T05:18:46.378Z,12.96
2017-06-10T05:19:55.738Z,13
2017-06-10T05:21:04.626Z,12.97
2017-06-10T05:22:13.845Z,12.96
2017-06-10T05:23:22.738Z,13.01
2017-06-10T05:24:31.631Z,13.07
2017-06-10T05:25:40.853Z,13.03
2017-06-10T05:26:50.083Z,13.19
2017-06-10T05:27:59.299Z,13.2
2017-06-10T05:29:08.192Z,13.25
2017-06-10T05:30:17.406Z,13.26
2017-06-10T05:31:26.307Z,13.26
2017-06-10T05:32:35.557Z,13.3
2017-06-10T05:33:44.448Z,13.22
2017-06-10T05:34:53.667Z,13.25
2017-06-10T05:36:02.564Z,13.32
2017-06-10T05:37:11.756Z,13.33
2017-06-10T05:38:20.650Z,13.38
2017-06-10T05:39:29.544Z,13.29
2017-06-10T05:40:38.432Z,13.41
2017-06-10T05:41:47.650Z,13.49
2017-06-10T05:42:57.015Z,13.51
2017-06-10T05:44:06.560Z,13.49
2017-06-10T05:45:15.773Z,13.48
2017-06-10T05:46:24.995Z,13.44
2017-06-10T05:47:34.210Z,13.48
2017-06-10T05:48:43.476Z,13.52
2017-06-10T05:49:52.694Z,13.48
2017-06-10T05:51:01.581Z,13.57
2017-06-10T05:52:10.476Z,13.62
2017-06-10T05:53:19.365Z,13.62
2017-06-10T05:54:28.360Z,13.64
2017-06-10T05:55:37.570Z,13.7
2017-06-10T05:56:46.787Z,13.66
2017-06-10T05:57:55.685Z,13.78
2017-06-10T05:59:04.578Z,13.71
2017-06-10T06:00:13.944Z,13.73
2017-06-10T06:01:22.836Z,13.78
2017-06-10T06:02:32.061Z,13.77
2017-06-10T06:03:40.953Z,13.77
2017-06-10T06:04:49.854Z,13.79
2017-06-10T06:05:59.449Z,13.79
2017-06-10T06:07:08.340Z,13.78
2017-06-10T06:08:17.553Z,13.92
2017-06-10T06:09:26.773Z,13.91
2017-06-10T06:10:35.662Z,13.88
2017-06-10T06:11:44.599Z,14
2017-06-10T06:12:53.492Z,14.02
2017-06-10T06:14:02.384Z,13.97
2017-06-10T06:15:11.275Z,14.04
2017-06-10T06:16:20.487Z,13.96
2017-06-10T06:17:29.528Z,14.02
2017-06-10T06:18:39.066Z,14.12
2017-06-10T06:19:48.602Z,14.14
2017-06-10T06:20:57.494Z,14.22
2017-06-10T06:22:06.392Z,14.24
2017-06-10T06:23:15.759Z,14.32
2017-06-10T06:24:24.655Z,14.36
2017-06-10T06:25:33.553Z,14.35
2017-06-10T06:26:42.447Z,14.32
2017-06-10T06:27:51.670Z,14.46
2017-06-10T06:29:00.614Z,14.46
2017-06-10T06:30:09.506Z,14.52
2017-06-10T06:31:18.658Z,14.52
2017-06-10T06:32:27.722Z,14.54
2017-06-10T06:33:37.287Z,14.6
2017-06-10T06:34:46.579Z,14.62
2017-06-10T06:35:56.137Z,14.55
2017-06-10T06:37:05.151Z,14.75
2017-06-10T06:38:14.342Z,14.75
2017-06-10T06:39:23.495Z,14.6
2017-06-10T06:40:32.451Z,14.69
2017-06-10T06:41:41.683Z,14.77
2017-06-10T06:42:51.012Z,14.78
2017-06-10T06:43:59.989Z,14.8
2017-06-10T06:45:09.138Z,14.73
2017-06-10T06:46:18.708Z,14.86
2017-06-10T06:47:27.691Z,14.94
2017-06-10T06:48:36.649Z,14.98
2017-06-10T06:49:45.818Z,14.98
2017-06-10T06:50:54.734Z,15.1
2017-06-10T06:52:03.623Z,15.11
2017-06-10T06:53:12.850Z,14.99
2017-06-10T06:54:22.066Z,15.01
2017-06-10T06:55:31.889Z,15.01
2017-06-10T06:56:41.272Z,15.1
2017-06-10T06:57:50.489Z,15.09
2017-06-10T06:58:59.382Z,15.19
2017-06-10T07:00:08.975Z,15.25
2017-06-10T07:01:17.866Z,15.25
2017-06-10T07:02:27.088Z,15.23
2017-06-10T07:03:35.982Z,15.28
2017-06-10T07:04:45.206Z,15.36
2017-06-10T07:05:54.273Z,15.57
2017-06-10T07:07:03.489Z,15.67
2017-06-10T07:08:12.381Z,15.74
2017-06-10T07:09:21.593Z,15.65
2017-06-10T07:10:30.809Z,15.75
2017-06-10T07:11:39.699Z,15.71
2017-06-10T07:12:48.919Z,15.71
2017-06-10T07:13:57.808Z,15.74
2017-06-10T07:15:06.703Z,15.71
2017-06-10T07:16:16.245Z,15.67
2017-06-10T07:17:25.542Z,15.68
2017-06-10T07:18:34.433Z,15.89
2017-06-10T07:19:43.654Z,15.93
2017-06-10T07:20:52.872Z,16.01
2017-06-10T07:22:01.769Z,16.01
2017-06-10T07:23:10.758Z,16.15
2017-06-10T07:24:19.979Z,16.11
2017-06-10T07:25:28.876Z,16.11
2017-06-10T07:26:38.101Z,16.02
2017-06-10T07:27:47.000Z,15.96
2017-06-10T07:28:56.041Z,15.97
2017-06-10T07:30:04.937Z,16.02
2017-06-10T07:31:13.842Z,16.02
2017-06-10T07:32:22.735Z,16.09
2017-06-10T07:33:31.640Z,16.09
2017-06-10T07:34:40.835Z,16.04
2017-06-10T07:35:50.698Z,16.04
2017-06-10T07:36:59.589Z,16.15
2017-06-10T07:38:08.482Z,16.24
2017-06-10T07:39:17.373Z,16.27
2017-06-10T07:40:26.419Z,16.31
2017-06-10T07:41:35.309Z,16.38
2017-06-10T07:42:44.217Z,16.39
2017-06-10T07:43:53.442Z,16.46
2017-06-10T07:45:02.333Z,16.49
2017-06-10T07:46:11.374Z,16.45
2017-06-10T07:47:20.265Z,16.46
2017-06-10T07:48:29.807Z,16.61
2017-06-10T07:49:38.700Z,16.58
2017-06-10T07:50:47.918Z,16.52
2017-06-10T07:51:57.314Z,16.56
2017-06-10T07:53:06.413Z,16.7
2017-06-10T07:54:15.310Z,16.79
2017-06-10T07:55:24.244Z,16.73
2017-06-10T07:56:33.151Z,16.88
2017-06-10T07:57:42.190Z,16.89
2017-06-10T07:58:51.081Z,16.89
2017-06-10T08:00:00.623Z,16.91
2017-06-10T08:01:09.842Z,17.01
2017-06-10T08:02:18.761Z,16.97
2017-06-10T08:03:28.034Z,16.94
2017-06-10T08:04:36.926Z,17.03
2017-06-10T08:05:45.874Z,17.14
2017-06-10T08:06:54.766Z,17.21
2017-06-10T08:08:03.983Z,17.26
2017-06-10T08:09:13.081Z,17.25
2017-06-10T08:10:21.979Z,17.3
2017-06-10T08:11:30.874Z,17.46
2017-06-10T08:12:40.097Z,17.46
2017-06-10T08:13:49.317Z,17.56
2017-06-10T08:14:58.357Z,17.55
2017-06-10T08:16:07.582Z,17.52
2017-06-10T08:17:16.486Z,17.58
2017-06-10T08:18:25.379Z,17.56
2017-06-10T08:19:34.270Z,17.63
2017-06-10T08:20:43.319Z,17.54
2017-06-10T08:21:52.214Z,17.55
2017-06-10T08:23:01.433Z,17.51
2017-06-10T08:24:10.341Z,17.55
2017-06-10T08:25:19.230Z,17.49
2017-06-10T08:26:28.174Z,17.77
2017-06-10T08:27:37.066Z,17.75
2017-06-10T08:28:45.958Z,17.81
2017-06-10T08:29:54.856Z,17.82
2017-06-10T08:31:04.407Z,17.95
2017-06-10T08:32:13.923Z,17.97
2017-06-10T08:33:22.815Z,18.08
2017-06-10T08:34:32.045Z,18.18
2017-06-10T08:35:41.264Z,18.08
2017-06-10T08:36:50.488Z,18.2
2017-06-10T08:37:59.531Z,18.11
2017-06-10T08:39:08.423Z,18.23
2017-06-10T08:40:17.326Z,18.2
2017-06-10T08:41:26.221Z,18.12
2017-06-10T08:42:35.115Z,18.17
2017-06-10T08:43:44.336Z,18.15
2017-06-10T08:44:53.233Z,18.32
2017-06-10T08:46:02.459Z,18.39
2017-06-10T08:47:11.676Z,18.51
2017-06-10T08:48:20.570Z,18.54
2017-06-10T08:49:29.790Z,18.54
2017-06-10T08:50:38.689Z,18.62
2017-06-10T08:51:48.263Z,18.69
2017-06-10T08:52:57.484Z,18.65
2017-06-10T08:54:06.385Z,18.75
2017-06-10T08:55:15.284Z,18.73
2017-06-10T08:56:24.178Z,18.63
2017-06-10T08:57:33.082Z,18.67
2017-06-10T08:58:41.984Z,18.76
2017-06-10T08:59:51.203Z,18.85
2017-06-10T09:01:00.424Z,18.9
2017-06-10T09:02:09.326Z,18.95
2017-06-10T09:03:18.223Z,18.94
2017-06-10T09:04:27.116Z,18.91
2017-06-10T09:05:36.010Z,18.99
2017-06-10T09:06:45.581Z,18.98
2017-06-10T09:07:54.811Z,19.11
2017-06-10T09:09:03.755Z,19.14
2017-06-10T09:10:12.979Z,19.16
2017-06-10T09:11:22.213Z,19.16
2017-06-10T09:12:31.431Z,19.19
2017-06-10T09:13:40.655Z,19.19
2017-06-10T09:14:49.971Z,19.16
2017-06-10T09:15:59.191Z,19.23
2017-06-10T09:17:08.410Z,19.19
2017-06-10T09:18:17.312Z,19.31
2017-06-10T09:19:26.205Z,19.44
2017-06-10T09:20:35.150Z,19.4
2017-06-10T09:21:44.365Z,19.41
2017-06-10T09:22:53.591Z,19.4
2017-06-10T09:24:02.493Z,19.47
2017-06-10T09:25:11.389Z,19.51
2017-06-10T09:26:20.284Z,19.55
2017-06-10T09:27:29.186Z,19.48
2017-06-10T09:28:38.081Z,19.55
2017-06-10T09:29:47.305Z,19.39
2017-06-10T09:30:56.196Z,19.47
2017-06-10T09:32:05.564Z,19.41
2017-06-10T09:33:14.781Z,19.47
2017-06-10T09:34:23.678Z,19.51
2017-06-10T09:35:32.900Z,19.61
2017-06-10T09:36:41.800Z,19.68
2017-06-10T09:37:51.372Z,19.92
2017-06-10T09:39:00.266Z,19.96
2017-06-10T09:40:09.161Z,20.02
2017-06-10T09:41:18.065Z,19.99
2017-06-10T09:42:26.967Z,20.14
2017-06-10T09:43:36.203Z,20.1
2017-06-10T09:44:45.099Z,20.14
2017-06-10T09:45:53.999Z,20.23
2017-06-10T09:47:02.895Z,20.21
2017-06-10T09:48:11.791Z,20.31
2017-06-10T09:49:21.059Z,20.31
2017-06-10T09:50:30.280Z,20.35
2017-06-10T09:51:39.497Z,20.39
2017-06-10T09:52:48.392Z,20.38
2017-06-10T09:53:57.284Z,20.35
2017-06-10T09:55:06.229Z,20.48
2017-06-10T09:56:15.125Z,20.54
2017-06-10T09:57:24.340Z,20.5
2017-06-10T09:58:33.567Z,20.35
2017-06-10T09:59:42.463Z,20.39
2017-06-10T10:00:51.459Z,20.35
2017-06-10T10:02:00.355Z,20.5
2017-06-10T10:03:09.583Z,20.35
2017-06-10T10:04:18.814Z,20.58
2017-06-10T10:05:27.716Z,20.7
2017-06-10T10:06:36.661Z,20.85
2017-06-10T10:07:45.564Z,20.87
2017-06-10T10:09:26.833Z,20.92
2017-06-10T10:10:36.380Z,20.92
2017-06-10T10:11:46.722Z,21.04
2017-06-10T10:12:56.415Z,20.97
2017-06-10T10:14:05.702Z,20.98
2017-06-10T10:15:14.917Z,20.85
2017-06-10T10:16:23.864Z,20.95
2017-06-10T10:17:32.798Z,21.07
2017-06-10T10:18:41.699Z,20.91
2017-06-10T10:19:51.246Z,21.03
2017-06-10T10:21:00.143Z,21.14
2017-06-10T10:22:09.054Z,21.22
2017-06-10T10:23:18.132Z,21.22
2017-06-10T10:24:27.074Z,21.35
2017-06-10T10:25:35.971Z,21.21
2017-06-10T10:26:45.079Z,21.25
2017-06-10T10:27:54.337Z,21.24
2017-06-10T10:29:04.131Z,21.35
2017-06-10T10:30:13.352Z,21.31
2017-06-10T10:31:22.294Z,21.38
2017-06-10T10:32:31.209Z,21.28
2017-06-10T10:33:40.477Z,21.37
2017-06-10T10:34:49.684Z,21.29
2017-06-10T10:35:58.581Z,21.29
2017-06-10T10:37:07.805Z,21.25
2017-06-10T10:38:16.706Z,21.42
2017-06-10T10:39:25.606Z,21.38
2017-06-10T10:40:34.552Z,21.61
2017-06-10T10:41:43.451Z,21.67
2017-06-10T10:42:52.376Z,21.59
2017-06-10T10:44:01.271Z,21.67
2017-06-10T10:45:10.170Z,21.82
2017-06-10T10:46:19.542Z,21.79
2017-06-10T10:47:28.773Z,21.84
2017-06-10T10:48:37.999Z,21.88
2017-06-10T10:49:47.227Z,21.75
2017-06-10T10:50:56.334Z,21.86
2017-06-10T10:52:05.707Z,22.03
2017-06-10T10:53:14.655Z,22.07
2017-06-10T10:54:23.884Z,22.06
2017-06-10T10:55:32.784Z,22.21
2017-06-10T10:56:41.692Z,22.06
2017-06-10T10:57:50.739Z,22.14
2017-06-10T10:58:59.960Z,21.94
2017-06-10T11:00:08.873Z,22.17
2017-06-10T11:01:17.771Z,22.09
2017-06-10T11:02:26.673Z,22.12
2017-06-10T11:03:35.574Z,22.09
2017-06-10T11:04:44.470Z,21.99
2017-06-10T11:05:53.368Z,22.14
2017-06-10T11:07:02.593Z,22.06
2017-06-10T11:08:11.848Z,22.1
2017-06-10T11:09:21.221Z,21.9
2017-06-10T11:10:30.130Z,21.94
2017-06-10T11:11:39.355Z,22.09
2017-06-10T11:12:48.581Z,22.22
2017-06-10T11:13:57.481Z,22.12
2017-06-10T11:15:06.712Z,22.3
2017-06-10T11:16:15.930Z,22.35
2017-06-10T11:17:24.825Z,22.52
2017-06-10T11:19:05.773Z,22.75
2017-06-10T11:20:14.875Z,22.79
2017-06-10T11:21:24.103Z,22.75
2017-06-10T11:22:33.012Z,22.64
2017-06-10T11:23:42.343Z,22.73
2017-06-10T11:24:51.572Z,22.79
2017-06-10T11:26:00.619Z,22.76
2017-06-10T11:27:09.845Z,22.73
2017-06-10T11:28:18.750Z,22.77
2017-06-10T11:29:27.650Z,22.77
2017-06-10T11:30:36.892Z,22.88
2017-06-10T11:31:46.282Z,22.94
2017-06-10T11:32:55.182Z,22.88
2017-06-10T11:34:04.415Z,23.02
2017-06-10T11:35:13.316Z,23.05
2017-06-10T11:36:22.255Z,23.04
2017-06-10T11:37:31.205Z,22.97
2017-06-10T11:38:40.759Z,23.01
2017-06-10T11:39:49.661Z,23.01
2017-06-10T11:40:58.586Z,22.91
2017-06-10T11:42:07.709Z,22.94
2017-06-10T11:43:16.829Z,22.94
2017-06-10T11:44:25.730Z,23.02
2017-06-10T11:45:34.632Z,23.13
2017-06-10T11:46:43.856Z,23.19
2017-06-10T11:47:53.089Z,23.19
2017-06-10T11:49:02.464Z,23.2
2017-06-10T11:50:11.363Z,23.1
2017-06-10T11:51:20.588Z,23.04
2017-06-10T11:52:29.822Z,23
2017-06-10T11:53:39.440Z,23
2017-06-10T11:54:48.973Z,23.02
2017-06-10T11:55:58.197Z,23.1
2017-06-10T11:57:07.098Z,23.2
2017-06-10T11:58:16.049Z,23.23
2017-06-10T11:59:24.956Z,23.13
2017-06-10T12:00:34.117Z,23.19
2017-06-10T12:01:43.018Z,23.2
2017-06-10T12:02:51.916Z,23.19
2017-06-10T12:04:01.141Z,23.22
2017-06-10T12:05:10.368Z,22.97
2017-06-10T12:06:19.419Z,23.01
2017-06-10T12:07:28.316Z,23.17
2017-06-10T12:08:37.555Z,23.28
2017-06-10T12:09:46.785Z,23.23
2017-06-10T12:10:56.008Z,23.19
2017-06-10T12:12:05.382Z,23.36
2017-06-10T12:13:14.290Z,23.51
2017-06-10T12:14:23.838Z,23.69
2017-06-10T12:15:33.065Z,23.57
2017-06-10T12:16:41.970Z,23.58
2017-06-10T12:17:50.978Z,23.68
2017-06-10T12:18:59.882Z,23.6
2017-06-10T12:20:09.112Z,23.61
2017-06-10T12:21:18.345Z,23.72
2017-06-10T12:22:27.247Z,23.75
2017-06-10T12:23:36.307Z,23.94
2017-06-10T12:24:45.533Z,23.97
2017-06-10T12:25:54.755Z,23.87
2017-06-10T12:27:03.665Z,23.94
2017-06-10T12:28:12.892Z,24.03
2017-06-10T12:29:22.050Z,24.02
2017-06-10T12:30:31.279Z,24.08
2017-06-10T12:31:40.183Z,23.97
2017-06-10T12:32:49.121Z,23.85
2017-06-10T12:33:58.047Z,23.87
2017-06-10T12:35:07.104Z,23.76
2017-06-10T12:36:16.003Z,23.73
2017-06-10T12:37:25.599Z,23.83
2017-06-10T12:38:34.834Z,23.88
2017-06-10T12:39:43.736Z,23.97
2017-06-10T12:40:52.745Z,23.93
2017-06-10T12:42:01.652Z,24.02
2017-06-10T12:43:10.937Z,24.18
2017-06-10T12:44:19.866Z,24.13
2017-06-10T12:45:28.775Z,24.12
2017-06-10T12:46:37.727Z,24.02
2017-06-10T12:47:46.628Z,23.73
2017-06-10T12:48:55.534Z,23.8
2017-06-10T12:50:04.759Z,23.88
2017-06-10T12:51:13.712Z,23.8
2017-06-10T12:52:23.113Z,23.84
2017-06-10T12:53:32.344Z,24.02
2017-06-10T12:54:41.582Z,24.08
2017-06-10T12:55:51.009Z,24
2017-06-10T12:57:00.487Z,23.95
2017-06-10T12:58:10.307Z,23.9
2017-06-10T12:59:19.244Z,23.87
2017-06-10T13:00:28.792Z,23.78
2017-06-10T13:01:38.021Z,23.73
2017-06-10T13:02:47.250Z,23.73
2017-06-10T13:03:56.308Z,23.72
2017-06-10T13:05:05.858Z,23.83
2017-06-10T13:06:14.765Z,23.83
2017-06-10T13:07:23.989Z,23.84
2017-06-10T13:08:32.888Z,23.87
2017-06-10T13:09:42.487Z,23.8
2017-06-10T13:10:51.392Z,23.76
2017-06-10T13:12:00.296Z,23.87
2017-06-10T13:13:09.530Z,23.95
2017-06-10T13:14:18.444Z,23.94
2017-06-10T13:15:27.832Z,23.91
2017-06-10T13:16:37.056Z,23.94
2017-06-10T13:17:46.280Z,23.97
2017-06-10T13:18:55.186Z,23.91
2017-06-10T13:20:04.744Z,23.88
2017-06-10T13:21:14.071Z,23.93
2017-06-10T13:22:22.980Z,23.95
2017-06-10T13:23:32.206Z,23.87
2017-06-10T13:24:41.434Z,23.91
2017-06-10T13:25:50.335Z,23.79
2017-06-10T13:26:59.504Z,23.75
2017-06-10T13:28:08.409Z,23.94
2017-06-10T13:29:17.316Z,23.85
2017-06-10T13:30:26.218Z,24.05
2017-06-10T13:31:35.121Z,24.15
2017-06-10T13:32:44.323Z,24.18
2017-06-10T13:33:53.223Z,24.37
2017-06-10T13:35:02.448Z,24.42
2017-06-10T13:36:11.677Z,24.53
2017-06-10T13:37:20.583Z,24.55
2017-06-10T13:38:29.964Z,24.69
2017-06-10T13:39:39.200Z,24.5
2017-06-10T13:40:48.104Z,24.5
2017-06-10T13:41:57.331Z,24.43
2017-06-10T13:43:06.235Z,24.42
2017-06-10T13:44:15.285Z,24.37
2017-06-10T13:45:24.186Z,24.32
2017-06-10T13:46:33.291Z,24.21
2017-06-10T13:47:42.577Z,24.05
2017-06-10T13:48:51.802Z,23.9
2017-06-10T13:50:01.027Z,23.91
2017-06-10T13:51:09.928Z,23.9
2017-06-10T13:52:19.157Z,23.97
2017-06-10T13:53:28.056Z,24
2017-06-10T13:54:36.959Z,24.02
2017-06-10T13:55:46.433Z,23.94
2017-06-10T13:56:55.333Z,23.95
2017-06-10T13:58:04.235Z,24.08
2017-06-10T13:59:13.138Z,23.95
2017-06-10T14:00:22.036Z,23.84
2017-06-10T14:01:31.419Z,23.8
2017-06-10T14:02:40.324Z,23.79
2017-06-10T14:03:49.549Z,23.57
2017-06-10T14:04:58.451Z,23.63
2017-06-10T14:06:07.674Z,23.6
2017-06-10T14:07:17.201Z,23.46
2017-06-10T14:08:26.104Z,23.36
2017-06-10T14:09:35.001Z,23.4
2017-06-10T14:10:44.546Z,23.51
2017-06-10T14:11:53.769Z,23.5
2017-06-10T14:13:03.145Z,23.55
2017-06-10T14:14:12.700Z,23.48
2017-06-10T14:15:21.600Z,23.55
2017-06-10T14:16:30.503Z,23.69
2017-06-10T14:17:40.066Z,23.63
2017-06-10T14:18:49.060Z,23.69
2017-06-10T14:19:57.957Z,23.65
2017-06-10T14:21:07.190Z,23.61
2017-06-10T14:22:16.138Z,23.63
2017-06-10T14:23:25.039Z,23.6
2017-06-10T14:24:34.413Z,23.58
2017-06-10T14:25:43.315Z,23.47
2017-06-10T14:26:52.862Z,23.51
2017-06-10T14:28:01.762Z,23.54
2017-06-10T14:29:10.989Z,23.32
2017-06-10T14:30:20.188Z,23.48
2017-06-10T14:31:29.093Z,23.47
2017-06-10T14:32:38.643Z,23.32
2017-06-10T14:33:47.865Z,23.4
2017-06-10T14:34:56.776Z,23.38
2017-06-10T14:36:06.304Z,23.54
2017-06-10T14:37:15.536Z,23.55
2017-06-10T14:38:24.436Z,23.54
2017-06-10T14:39:33.332Z,23.54
2017-06-10T14:40:42.557Z,23.69
2017-06-10T14:41:52.109Z,23.69
2017-06-10T14:43:01.332Z,23.58
2017-06-10T14:44:10.235Z,23.63
2017-06-10T14:45:19.455Z,23.68
2017-06-10T14:46:28.355Z,23.7
2017-06-10T14:47:37.305Z,23.58
2017-06-10T14:48:46.530Z,23.58
2017-06-10T14:49:55.432Z,23.6
2017-06-10T14:51:04.328Z,23.61
2017-06-10T14:52:13.554Z,23.69
2017-06-10T14:53:22.835Z,23.69
2017-06-10T14:54:32.063Z,23.53